createdAt,value
2018-08-23T00:00:34.319Z,101073.39
2018-08-23T00:03:02.610Z,101064.90
2018-08-23T00:05:31.249Z,101057.69
2018-08-23T00:08:09.998Z,101065.61
2018-08-23T00:10:38.205Z,101060.50
2018-08-23T00:13:07.146Z,101068.80
2018-08-23T00:15:35.413Z,101059.75
2018-08-23T00:18:03.644Z,101060.39
2018-08-23T00:20:31.924Z,101055.19
2018-08-23T00:23:00.185Z,101049.69
2018-08-23T00:25:28.451Z,101051.35
2018-08-23T00:27:56.670Z,101040.45
2018-08-23T00:30:27.668Z,101044.73
2018-08-23T00:32:55.918Z,101034.11
2018-08-23T00:35:24.277Z,101044.61
2018-08-23T00:37:52.530Z,101040.96
2018-08-23T00:40:20.745Z,101035.77
2018-08-23T00:42:54.369Z,101036.48
2018-08-23T00:45:22.626Z,101031.81
2018-08-23T00:47:50.853Z,101036.59
2018-08-23T00:50:59.541Z,101039.17
2018-08-23T00:53:28.960Z,101036.55
2018-08-23T00:56:13.025Z,101032.72
2018-08-23T00:58:44.041Z,101035.29
2018-08-23T01:01:13.698Z,101034.14
2018-08-23T01:03:42.165Z,101023.55
2018-08-23T01:06:10.397Z,101027.20
2018-08-23T01:08:38.660Z,101033.30
2018-08-23T01:11:08.411Z,101029.65
2018-08-23T01:13:36.717Z,101024.97
2018-08-23T01:16:04.948Z,101024.66
2018-08-23T01:18:33.165Z,101028.38
2018-08-23T01:21:06.717Z,101015.89
2018-08-23T01:23:35.221Z,101021.59
2018-08-23T01:26:04.438Z,101023.14
2018-08-23T01:28:32.865Z,101022.83
2018-08-23T01:31:16.929Z,101016.28
2018-08-23T01:33:45.545Z,101014.30
2018-08-23T01:36:15.246Z,101011.48
2018-08-23T01:38:43.456Z,101007.45
2018-08-23T01:41:12.532Z,101003.80
2018-08-23T01:43:41.965Z,101003.20
2018-08-23T01:46:10.202Z,100999.04
2018-08-23T01:48:39.149Z,100998.72
2018-08-23T01:51:07.370Z,101001.61
2018-08-23T01:53:38.248Z,101001.29
2018-08-23T01:56:07.420Z,100994.95
2018-08-23T01:58:35.849Z,100994.63
2018-08-23T02:01:14.504Z,100990.70
2018-08-23T02:03:43.077Z,100994.93
2018-08-23T02:06:11.297Z,100990.13
2018-08-23T02:08:39.553Z,100986.16
2018-08-23T02:11:07.946Z,100988.86
2018-08-23T02:13:36.176Z,100980.46
2018-08-23T02:16:04.729Z,100980.85
2018-08-23T02:18:33.760Z,100971.86
2018-08-23T02:21:10.937Z,100982.69
2018-08-23T02:23:46.715Z,100979.75
2018-08-23T02:26:15.192Z,100980.77
2018-08-23T02:28:45.952Z,100975.27
2018-08-23T02:31:14.189Z,100972.80
2018-08-23T02:33:42.429Z,100969.16
2018-08-23T02:36:17.572Z,100969.86
2018-08-23T02:38:47.505Z,100959.80
2018-08-23T02:41:16.184Z,100959.16
2018-08-23T02:43:44.909Z,100960.89
2018-08-23T02:46:13.113Z,100963.27
2018-08-23T02:48:41.357Z,100956.92
2018-08-23T02:51:09.613Z,100957.95
2018-08-23T02:53:40.105Z,100956.03
2018-08-23T02:56:09.876Z,100963.72
2018-08-23T02:58:51.150Z,100963.08
2018-08-23T03:01:19.414Z,100958.41
2018-08-23T03:04:00.593Z,100959.94
2018-08-23T03:06:33.616Z,100954.23
2018-08-23T03:09:01.905Z,100949.69
2018-08-23T03:11:30.129Z,100945.34
2018-08-23T03:13:58.399Z,100945.34
2018-08-23T03:16:31.353Z,100941.82
2018-08-23T03:18:59.607Z,100941.82
2018-08-23T03:21:27.838Z,100939.35
2018-08-23T03:23:56.069Z,100940.70
2018-08-23T03:26:24.306Z,100934.68
2018-08-23T03:28:52.512Z,100930.52
2018-08-23T03:31:20.741Z,100933.40
2018-08-23T03:33:48.965Z,100931.73
2018-08-23T03:36:17.185Z,100932.77
2018-08-23T03:38:45.408Z,100930.13
2018-08-23T03:41:13.641Z,100933.84
2018-08-23T03:43:41.986Z,100929.50
2018-08-23T03:46:10.225Z,100931.58
2018-08-23T03:48:38.460Z,100933.94
2018-08-23T03:51:07.510Z,100935.80
2018-08-23T03:53:47.892Z,100934.97
2018-08-23T03:56:16.976Z,100940.73
2018-08-23T03:58:45.293Z,100937.72
2018-08-23T04:01:13.887Z,100939.06
2018-08-23T04:03:42.376Z,100939.44
2018-08-23T04:06:36.224Z,100934.06
2018-08-23T04:09:07.757Z,100936.44
2018-08-23T04:11:36.021Z,100932.08
2018-08-23T04:14:04.301Z,100930.09
2018-08-23T04:16:32.644Z,100926.48
2018-08-23T04:19:00.873Z,100931.72
2018-08-23T04:21:30.281Z,100924.55
2018-08-23T04:23:58.609Z,100927.94
2018-08-23T04:26:27.813Z,100937.34
2018-08-23T04:28:56.072Z,100926.27
2018-08-23T04:31:24.329Z,100924.28
2018-08-23T04:33:52.588Z,100927.70
2018-08-23T04:36:28.728Z,100930.39
2018-08-23T04:38:59.864Z,100937.41
2018-08-23T04:41:28.853Z,100934.42
2018-08-23T04:44:06.969Z,100932.77
2018-08-23T04:46:35.245Z,100935.96
2018-08-23T04:49:05.617Z,100933.27
2018-08-23T04:51:34.439Z,100934.80
2018-08-23T04:54:02.937Z,100934.16
2018-08-23T04:56:31.613Z,100931.98
2018-08-23T04:59:00.109Z,100925.45
2018-08-23T05:01:28.481Z,100926.99
2018-08-23T05:03:56.688Z,100926.48
2018-08-23T05:06:25.044Z,100922.13
2018-08-23T05:08:53.304Z,100923.98
2018-08-23T05:11:21.521Z,100927.88
2018-08-23T05:13:56.415Z,100925.89
2018-08-23T05:16:24.705Z,100928.58
2018-08-23T05:18:52.989Z,100927.94
2018-08-23T05:21:21.285Z,100927.61
2018-08-23T05:23:49.605Z,100923.42
2018-08-23T05:26:19.200Z,100928.91
2018-08-23T05:28:59.817Z,100924.81
2018-08-23T05:31:29.516Z,100923.09
2018-08-23T05:34:05.367Z,100922.72
2018-08-23T05:36:33.621Z,100913.12
2018-08-23T05:39:02.458Z,100914.56
2018-08-23T05:41:30.932Z,100911.87
2018-08-23T05:44:03.669Z,100914.69
2018-08-23T05:46:36.481Z,100915.84
2018-08-23T05:49:05.043Z,100908.75
2018-08-23T05:51:36.122Z,100906.38
2018-08-23T05:54:04.561Z,100910.03
2018-08-23T05:56:32.953Z,100902.80
2018-08-23T05:59:06.549Z,100902.61
2018-08-23T06:01:34.786Z,100906.64
2018-08-23T06:04:03.112Z,100901.26
2018-08-23T06:06:31.361Z,100900.84
2018-08-23T06:09:01.466Z,100900.33
2018-08-23T06:11:29.870Z,100895.27
2018-08-23T06:13:58.106Z,100896.75
2018-08-23T06:16:26.393Z,100889.64
2018-08-23T06:18:54.673Z,100884.33
2018-08-23T06:21:22.901Z,100895.47
2018-08-23T06:23:56.034Z,100891.24
2018-08-23T06:26:55.251Z,100900.42
2018-08-23T06:29:26.585Z,100898.89
2018-08-23T06:32:06.400Z,100894.16
2018-08-23T06:34:39.581Z,100901.20
2018-08-23T06:37:07.876Z,100899.34
2018-08-23T06:39:36.249Z,100896.65
2018-08-23T06:42:04.846Z,100892.94
2018-08-23T06:44:36.676Z,100890.88
2018-08-23T06:47:04.969Z,100893.38
2018-08-23T06:49:33.297Z,100889.03
2018-08-23T06:52:09.286Z,100888.64
2018-08-23T06:54:37.524Z,100890.11
2018-08-23T06:57:05.756Z,100888.16
2018-08-23T06:59:34.025Z,100891.80
2018-08-23T07:02:02.622Z,100896.59
2018-08-23T07:04:30.884Z,100898.58
2018-08-23T07:06:59.149Z,100898.77
2018-08-23T07:09:27.361Z,100902.80
2018-08-23T07:12:04.509Z,100898.65
2018-08-23T07:14:34.367Z,100900.89
2018-08-23T07:17:18.092Z,100906.91
2018-08-23T07:19:47.249Z,100906.72
2018-08-23T07:22:20.809Z,100912.93
2018-08-23T07:24:49.857Z,100909.73
2018-08-23T07:27:19.303Z,100915.23
2018-08-23T07:29:48.853Z,100910.48
2018-08-23T07:32:18.162Z,100911.13
2018-08-23T07:35:18.306Z,100914.06
2018-08-23T07:37:48.992Z,100917.71
2018-08-23T07:40:19.280Z,100913.80
2018-08-23T07:42:48.967Z,100912.86
2018-08-23T07:45:17.169Z,100910.48
2018-08-23T07:47:50.576Z,100910.09
2018-08-23T07:50:18.981Z,100899.27
2018-08-23T07:52:51.006Z,100905.41
2018-08-23T07:55:19.145Z,100900.11
2018-08-23T07:57:47.597Z,100902.73
2018-08-23T08:00:25.716Z,100895.80
2018-08-23T08:02:54.077Z,100900.98
2018-08-23T08:05:24.209Z,100894.69
2018-08-23T08:07:52.470Z,100893.78
2018-08-23T08:10:20.917Z,100899.77
2018-08-23T08:12:52.313Z,100898.73
2018-08-23T08:15:20.789Z,100902.70
2018-08-23T08:17:48.929Z,100900.44
2018-08-23T08:20:17.201Z,100898.50
2018-08-23T08:22:45.429Z,100906.47
2018-08-23T08:25:19.273Z,100911.25
2018-08-23T08:27:48.457Z,100908.36
2018-08-23T08:30:19.431Z,100900.55
2018-08-23T08:32:47.652Z,100900.95
2018-08-23T08:35:19.073Z,100894.02
2018-08-23T08:37:48.937Z,100895.68
2018-08-23T08:40:24.249Z,100893.30
2018-08-23T08:42:52.478Z,100892.06
2018-08-23T08:45:20.913Z,100892.06
2018-08-23T08:47:49.189Z,100888.34
2018-08-23T08:50:17.489Z,100881.92
2018-08-23T08:52:45.658Z,100886.98
2018-08-23T08:55:15.537Z,100884.01
2018-08-23T08:57:45.093Z,100878.73
2018-08-23T09:00:13.297Z,100883.92
2018-08-23T09:02:41.652Z,100879.67
2018-08-23T09:05:10.617Z,100875.52
2018-08-23T09:07:40.437Z,100872.63
2018-08-23T09:10:08.716Z,100860.73
2018-08-23T09:12:54.249Z,100856.88
2018-08-23T09:15:22.612Z,100861.66
2018-08-23T09:17:50.904Z,100866.64
2018-08-23T09:20:19.867Z,100865.16
2018-08-23T09:22:57.093Z,100860.83
2018-08-23T09:25:28.132Z,100856.23
2018-08-23T09:27:56.360Z,100849.92
2018-08-23T09:30:30.778Z,100855.73
2018-08-23T09:33:03.185Z,100847.95
2018-08-23T09:35:32.677Z,100850.48
2018-08-23T09:38:02.409Z,100851.48
2018-08-23T09:40:30.737Z,100854.71
2018-08-23T09:43:03.017Z,100860.11
2018-08-23T09:45:32.269Z,100850.66
2018-08-23T09:48:00.558Z,100855.34
2018-08-23T09:50:28.890Z,100847.24
2018-08-23T09:52:57.164Z,100849.53
2018-08-23T09:55:28.609Z,100847.53
2018-08-23T09:57:57.488Z,100850.33
2018-08-23T10:00:31.440Z,100844.20
2018-08-23T10:03:05.119Z,100839.02
2018-08-23T10:05:38.750Z,100841.38
2018-08-23T10:08:12.285Z,100829.16
2018-08-23T10:10:45.885Z,100824.25
2018-08-23T10:13:19.594Z,100840.33
2018-08-23T10:16:53.857Z,100829.91
2018-08-23T10:19:27.333Z,100835.70
2018-08-23T10:22:00.929Z,100829.64
2018-08-23T10:24:32.837Z,100826.34
2018-08-23T10:27:01.425Z,100814.95
2018-08-23T10:29:29.637Z,100816.02
2018-08-23T10:31:57.927Z,100800.86
2018-08-23T10:34:26.224Z,100800.55
2018-08-23T10:36:54.421Z,100804.46
2018-08-23T10:39:22.668Z,100805.70
2018-08-23T10:41:50.897Z,100795.97
2018-08-23T10:44:19.375Z,100806.52
2018-08-23T10:46:53.060Z,100797.91
2018-08-23T10:49:21.264Z,100793.48
2018-08-23T10:51:49.509Z,100795.50
2018-08-23T10:54:17.770Z,100787.11
2018-08-23T10:56:46.028Z,100799.56
2018-08-23T10:59:14.379Z,100791.12
2018-08-23T11:01:42.586Z,100794.15
2018-08-23T11:04:11.197Z,100794.64
2018-08-23T11:06:44.677Z,100796.25
2018-08-23T11:09:18.149Z,100794.67
2018-08-23T11:11:46.405Z,100794.22
2018-08-23T11:14:19.973Z,100796.30
2018-08-23T11:16:53.666Z,100791.30
2018-08-23T11:19:27.085Z,100784.75
2018-08-23T11:21:55.309Z,100781.27
2018-08-23T11:24:23.533Z,100789.16
2018-08-23T11:26:51.821Z,100779.55
2018-08-23T11:29:22.173Z,100780.33
2018-08-23T11:31:50.889Z,100785.36
2018-08-23T11:34:19.114Z,100782.08
2018-08-23T11:36:47.425Z,100785.27
2018-08-23T11:39:15.637Z,100784.12
2018-08-23T11:41:43.903Z,100781.30
2018-08-23T11:44:12.118Z,100774.13
2018-08-23T11:46:40.333Z,100781.05
2018-08-23T11:49:08.534Z,100770.42
2018-08-23T11:51:36.817Z,100766.55
2018-08-23T11:54:05.133Z,100765.39
2018-08-23T11:56:33.448Z,100765.41
2018-08-23T11:59:02.037Z,100773.03
2018-08-23T12:01:30.244Z,100758.74
2018-08-23T12:03:58.492Z,100768.17
2018-08-23T12:06:26.760Z,100765.74
2018-08-23T12:08:54.949Z,100776.52
2018-08-23T12:11:23.157Z,100772.54
2018-08-23T12:13:51.794Z,100756.23
2018-08-23T12:16:20.089Z,100756.42
2018-08-23T12:18:48.713Z,100756.35
2018-08-23T12:21:16.962Z,100759.95
2018-08-23T12:23:45.184Z,100753.45
2018-08-23T12:26:13.446Z,100748.66
2018-08-23T12:28:46.994Z,100749.66
2018-08-23T12:31:15.406Z,100750.59
2018-08-23T12:33:43.632Z,100768.75
2018-08-23T12:36:12.277Z,100738.65
2018-08-23T12:38:45.940Z,100742.44
2018-08-23T12:41:19.485Z,100748.78
2018-08-23T12:43:48.853Z,100745.02
2018-08-23T12:46:17.559Z,100740.42
2018-08-23T12:48:46.048Z,100742.10
2018-08-23T12:51:14.325Z,100745.09
2018-08-23T12:53:42.549Z,100755.41
2018-08-23T12:56:11.074Z,100741.23
2018-08-23T12:58:39.371Z,100743.84
2018-08-23T13:01:07.565Z,100736.55
2018-08-23T13:03:35.880Z,100730.61
2018-08-23T13:06:04.144Z,100728.23
2018-08-23T13:08:32.445Z,100731.19
2018-08-23T13:11:00.692Z,100726.14
2018-08-23T13:13:28.904Z,100719.58
2018-08-23T13:15:57.145Z,100709.21
2018-08-23T13:18:25.400Z,100708.95
2018-08-23T13:20:53.612Z,100708.56
2018-08-23T13:23:21.845Z,100708.01
2018-08-23T13:25:55.479Z,100719.23
2018-08-23T13:28:24.493Z,100704.47
2018-08-23T13:30:53.095Z,100697.62
2018-08-23T13:33:21.406Z,100694.73
2018-08-23T13:35:49.884Z,100682.75
2018-08-23T13:38:18.290Z,100687.22
2018-08-23T13:40:46.537Z,100687.14
2018-08-23T13:43:14.798Z,100687.52
2018-08-23T13:45:43.145Z,100675.41
2018-08-23T13:48:11.377Z,100679.65
2018-08-23T13:50:39.612Z,100676.72
2018-08-23T13:53:07.989Z,100673.26
2018-08-23T13:55:36.233Z,100676.80
2018-08-23T13:58:04.524Z,100660.83
2018-08-23T14:00:37.977Z,100679.61
2018-08-23T14:03:07.272Z,100675.02
2018-08-23T14:05:35.599Z,100658.55
2018-08-23T14:08:03.857Z,100661.22
2018-08-23T14:10:32.165Z,100665.73
2018-08-23T14:13:00.395Z,100654.71
2018-08-23T14:15:33.864Z,100655.41
2018-08-23T14:18:02.162Z,100653.19
2018-08-23T14:20:30.393Z,100653.03
2018-08-23T14:22:58.665Z,100654.04
2018-08-23T14:25:26.877Z,100659.81
2018-08-23T14:27:55.377Z,100650.22
2018-08-23T14:30:23.713Z,100646.03
2018-08-23T14:32:51.999Z,100643.09
2018-08-23T14:35:20.204Z,100647.95
2018-08-23T14:37:48.477Z,100648.42
2018-08-23T14:40:16.762Z,100629.23
2018-08-23T14:42:45.009Z,100631.45
2018-08-23T14:45:17.453Z,100629.33
2018-08-23T14:47:51.109Z,100628.44
2018-08-23T14:50:19.380Z,100627.19
2018-08-23T14:52:47.660Z,100622.81
2018-08-23T14:55:20.141Z,100620.69
2018-08-23T14:57:48.417Z,100609.38
2018-08-23T15:00:16.673Z,100617.63
2018-08-23T15:02:44.905Z,100616.33
2018-08-23T15:05:13.285Z,100614.98
2018-08-23T15:07:41.612Z,100609.13
2018-08-23T15:10:09.825Z,100608.67
2018-08-23T15:12:38.101Z,100614.59
2018-08-23T15:15:08.328Z,100613.39
2018-08-23T15:17:36.549Z,100600.70
2018-08-23T15:20:04.920Z,100599.55
2018-08-23T15:22:33.165Z,100592.75
2018-08-23T15:25:01.413Z,100594.15
2018-08-23T15:27:32.749Z,100592.87
2018-08-23T15:30:01.822Z,100602.34
2018-08-23T15:32:30.161Z,100596.63
2018-08-23T15:34:58.423Z,100603.17
2018-08-23T15:37:26.689Z,100594.44
2018-08-23T15:39:55.021Z,100601.19
2018-08-23T15:42:23.301Z,100596.20
2018-08-23T15:44:51.608Z,100594.77
2018-08-23T15:47:19.840Z,100592.60
2018-08-23T15:49:48.089Z,100600.55
2018-08-23T15:52:16.425Z,100599.84
2018-08-23T15:54:44.665Z,100597.62
2018-08-23T15:57:12.896Z,100601.17
2018-08-23T15:59:41.117Z,100592.06
2018-08-23T16:02:09.361Z,100597.22
2018-08-23T16:04:37.590Z,100591.55
2018-08-23T16:07:05.856Z,100589.79
2018-08-23T16:09:34.169Z,100591.06
2018-08-23T16:12:02.393Z,100592.11
2018-08-23T16:14:30.658Z,100585.61
2018-08-23T16:17:04.333Z,100591.56
2018-08-23T16:19:37.756Z,100588.59
2018-08-23T16:22:06.119Z,100590.16
2018-08-23T16:24:34.341Z,100577.59
2018-08-23T16:27:02.639Z,100586.19
2018-08-23T16:29:30.885Z,100574.42
2018-08-23T16:31:59.211Z,100591.50
2018-08-23T16:34:27.715Z,100578.36
2018-08-23T16:36:56.006Z,100583.68
2018-08-23T16:39:24.325Z,100579.77
2018-08-23T16:41:52.607Z,100569.45
2018-08-23T16:44:20.839Z,100575.34
2018-08-23T16:46:49.128Z,100580.95
2018-08-23T16:49:17.392Z,100580.42
2018-08-23T16:51:45.628Z,100574.16
2018-08-23T16:54:13.829Z,100580.48
2018-08-23T16:56:42.092Z,100581.02
2018-08-23T16:59:10.377Z,100576.70
2018-08-23T17:01:38.593Z,100577.84
2018-08-23T17:04:06.887Z,100581.30
2018-08-23T17:06:35.029Z,100581.53
2018-08-23T17:09:03.345Z,100586.28
2018-08-23T17:11:31.719Z,100576.66
2018-08-23T17:13:59.921Z,100576.24
2018-08-23T17:16:33.637Z,100578.63
2018-08-23T17:19:01.886Z,100572.00
2018-08-23T17:21:30.117Z,100577.65
2018-08-23T17:23:58.401Z,100572.40
2018-08-23T17:26:26.625Z,100570.00
2018-08-23T17:28:54.845Z,100567.53
2018-08-23T17:31:23.137Z,100571.93
2018-08-23T17:33:51.397Z,100568.53
2018-08-23T17:36:19.629Z,100571.86
2018-08-23T17:38:47.895Z,100567.63
2018-08-23T17:41:16.206Z,100578.06
2018-08-23T17:43:44.449Z,100573.72
2018-08-23T17:46:12.693Z,100573.02
2018-08-23T17:48:40.909Z,100574.88
2018-08-23T17:51:09.145Z,100580.45
2018-08-23T17:53:37.403Z,100588.88
2018-08-23T17:56:05.906Z,100584.55
2018-08-23T17:58:34.161Z,100582.97
2018-08-23T18:01:02.470Z,100583.20
2018-08-23T18:03:30.682Z,100587.25
2018-08-23T18:05:58.933Z,100590.56
2018-08-23T18:08:27.201Z,100582.75
2018-08-23T18:10:55.465Z,100588.19
2018-08-23T18:13:23.725Z,100590.73
2018-08-23T18:15:57.181Z,100586.22
2018-08-23T18:18:25.381Z,100589.85
2018-08-23T18:20:53.591Z,100592.39
2018-08-23T18:23:22.025Z,100597.81
2018-08-23T18:25:50.245Z,100606.36
2018-08-23T18:28:18.498Z,100609.53
2018-08-23T18:30:46.789Z,100609.53
2018-08-23T18:33:15.048Z,100624.32
2018-08-23T18:35:43.297Z,100622.80
2018-08-23T18:38:11.533Z,100621.55
2018-08-23T18:40:39.745Z,100622.09
2018-08-23T18:43:07.965Z,100621.70
2018-08-23T18:45:36.201Z,100628.45
2018-08-23T18:48:04.445Z,100621.62
2018-08-23T18:50:32.657Z,100623.87
2018-08-23T18:53:03.929Z,100628.98
2018-08-23T18:55:32.202Z,100628.67
2018-08-23T18:58:00.441Z,100639.48
2018-08-23T19:00:28.921Z,100640.00
2018-08-23T19:02:57.261Z,100640.00
2018-08-23T19:05:25.521Z,100639.70
2018-08-23T19:07:53.756Z,100640.22
2018-08-23T19:10:22.027Z,100639.61
2018-08-23T19:12:50.353Z,100643.58
2018-08-23T19:15:23.825Z,100641.56
2018-08-23T19:17:52.210Z,100646.44
2018-08-23T19:20:20.429Z,100638.69
2018-08-23T19:22:48.696Z,100639.86
2018-08-23T19:25:17.121Z,100638.52
2018-08-23T19:27:45.213Z,100637.33
2018-08-23T19:30:13.416Z,100639.63
2018-08-23T19:32:41.624Z,100631.97
2018-08-23T19:35:09.952Z,100635.92
2018-08-23T19:37:38.209Z,100634.70
2018-08-23T19:40:06.513Z,100623.02
2018-08-23T19:42:34.808Z,100627.80
2018-08-23T19:45:03.184Z,100629.16
2018-08-23T19:47:36.706Z,100617.05
2018-08-23T19:50:08.725Z,100624.92
2018-08-23T19:52:37.184Z,100623.98
2018-08-23T19:55:05.549Z,100609.20
2018-08-23T19:57:33.760Z,100615.73
2018-08-23T20:00:02.007Z,100623.22
2018-08-23T20:02:30.221Z,100624.91
2018-08-23T20:04:58.493Z,100625.80
2018-08-23T20:07:26.769Z,100627.17
2018-08-23T20:09:54.984Z,100623.77
2018-08-23T20:12:23.263Z,100630.41
2018-08-23T20:14:51.501Z,100618.05
2018-08-23T20:17:19.732Z,100625.72
2018-08-23T20:19:47.997Z,100613.39
2018-08-23T20:22:16.280Z,100624.67
2018-08-23T20:24:44.580Z,100628.11
2018-08-23T20:27:12.777Z,100630.28
2018-08-23T20:29:41.208Z,100631.42
2018-08-23T20:32:09.497Z,100621.98
2018-08-23T20:34:37.673Z,100629.03
2018-08-23T20:37:05.928Z,100628.51
2018-08-23T20:39:34.296Z,100625.41
2018-08-23T20:42:02.477Z,100628.77
2018-08-23T20:44:30.758Z,100633.45
2018-08-23T20:46:59.018Z,100630.56
2018-08-23T20:49:27.241Z,100627.47
2018-08-23T20:51:55.513Z,100625.44
2018-08-23T20:54:23.751Z,100623.78
2018-08-23T20:56:51.985Z,100617.34
2018-08-23T20:59:20.233Z,100615.38
2018-08-23T21:01:48.453Z,100603.25
2018-08-23T21:04:16.710Z,100603.77
2018-08-23T21:06:44.922Z,100603.64
2018-08-23T21:09:13.860Z,100612.15
2018-08-23T21:11:42.137Z,100612.05
2018-08-23T21:14:11.084Z,100606.91
2018-08-23T21:16:39.353Z,100607.86
2018-08-23T21:19:07.709Z,100622.26
2018-08-23T21:21:35.990Z,100617.91
2018-08-23T21:24:04.213Z,100627.55
2018-08-23T21:26:32.441Z,100626.72
2018-08-23T21:29:00.716Z,100623.31
2018-08-23T21:31:28.917Z,100623.62
2018-08-23T21:33:57.149Z,100615.88
2018-08-23T21:36:25.426Z,100621.13
2018-08-23T21:38:53.669Z,100618.44
2018-08-23T21:41:22.053Z,100624.59
2018-08-23T21:43:50.269Z,100624.28
2018-08-23T21:46:18.608Z,100626.35
2018-08-23T21:48:47.040Z,100629.47
2018-08-23T21:51:15.382Z,100624.80
2018-08-23T21:53:43.627Z,100630.50
2018-08-23T21:56:11.874Z,100630.71
2018-08-23T21:58:40.113Z,100626.87
2018-08-23T22:01:09.345Z,100635.38
2018-08-23T22:03:38.061Z,100635.92
2018-08-23T22:06:06.332Z,100631.78
2018-08-23T22:08:34.832Z,100629.61
2018-08-23T22:11:03.229Z,100631.16
2018-08-23T22:13:31.729Z,100607.95
2018-08-23T22:15:59.962Z,100626.60
2018-08-23T22:18:28.168Z,100623.08
2018-08-23T22:20:56.477Z,100621.42
2018-08-23T22:23:24.704Z,100613.86
2018-08-23T22:25:52.919Z,100607.95
2018-08-23T22:28:21.165Z,100617.07
2018-08-23T22:30:49.426Z,100615.11
2018-08-23T22:33:17.760Z,100612.52
2018-08-23T22:35:45.996Z,100597.53
2018-08-23T22:38:14.220Z,100597.18
2018-08-23T22:40:42.442Z,100600.19
2018-08-23T22:43:10.705Z,100592.00
2018-08-23T22:45:38.925Z,100596.18
2018-08-23T22:48:07.238Z,100596.18
2018-08-23T22:50:35.441Z,100597.25
2018-08-23T22:53:03.652Z,100598.25
2018-08-23T22:55:31.901Z,100598.45
2018-08-23T22:58:00.186Z,100597.94
2018-08-23T23:00:33.805Z,100592.34
2018-08-23T23:03:02.075Z,100586.48
2018-08-23T23:05:30.309Z,100591.52
2018-08-23T23:08:02.697Z,100591.20
2018-08-23T23:10:30.898Z,100592.87
2018-08-23T23:12:59.145Z,100587.48
2018-08-23T23:15:27.433Z,100592.17
2018-08-23T23:17:55.926Z,100581.68
2018-08-23T23:20:24.145Z,100587.69
2018-08-23T23:22:52.380Z,100586.86
2018-08-23T23:25:20.629Z,100585.13
2018-08-23T23:27:48.836Z,100583.44
2018-08-23T23:30:17.061Z,100571.53
2018-08-23T23:32:45.285Z,100572.25
2018-08-23T23:35:13.497Z,100574.02
2018-08-23T23:37:41.732Z,100574.33
2018-08-23T23:40:09.980Z,100576.70
2018-08-23T23:42:38.872Z,100574.42
2018-08-23T23:45:07.924Z,100570.28
2018-08-23T23:47:36.163Z,100571.56
2018-08-23T23:50:04.833Z,100566.80
2018-08-23T23:52:33.054Z,100562.75
2018-08-23T23:55:01.333Z,100562.13
2018-08-23T23:57:29.577Z,100555.50
2018-08-23T23:59:58.069Z,100564.54
